New Sharon, Iowa
Current Conditions -  °F | °C
As of 8:55 PM on Tuesday 25 Nov 2014 (Local Time) from KPEA Reporting Station
Clear Clear  
Wind Chill: 20°   Ceiling: Unl
Heat Index: 27°   Visibility: 10mi
Dew Point: 17°   Wind: 6mph
Humidity: 67%   Direction: 140°SE
Pressure: 30.07"   Gusts: NA
Location:  41.47°N, 92.65°W
Report Text: KPEA 260255Z AUTO 14005KT 10SM CLR M03/M08 A3007 RMK AO2 T10301083
Loading
Personal Weather Stations






























Interactive Weather Map New forecast layout! Learn more

10-Day Weather Forecast

Advertisements
Track Severe Weather on mobile